sensor_id;sensor_type;location;lat;lon;timestamp;pressure;altitude;pressure_sealevel;temperature;humidity
61086;BME280;46967;48.876;2.136;2023-01-10T00:00:27;101683.88;;;4.69;87.40
61086;BME280;46967;48.876;2.136;2023-01-10T00:02:56;101694.16;;;4.66;87.38
61086;BME280;46967;48.876;2.136;2023-01-10T00:05:22;101693.19;;;4.57;88.10
61086;BME280;46967;48.876;2.136;2023-01-10T00:07:47;101693.19;;;4.58;87.90
61086;BME280;46967;48.876;2.136;2023-01-10T00:10:12;101684.56;;;4.51;88.16
61086;BME280;46967;48.876;2.136;2023-01-10T00:12:38;101677.69;;;4.46;88.44
61086;BME280;46967;48.876;2.136;2023-01-10T00:15:22;101683.66;;;4.45;88.46
61086;BME280;46967;48.876;2.136;2023-01-10T00:17:47;101688.81;;;4.46;88.45
61086;BME280;46967;48.876;2.136;2023-01-10T00:20:13;101688.91;;;4.56;87.85
61086;BME280;46967;48.876;2.136;2023-01-10T00:22:39;101685.41;;;4.49;88.28
61086;BME280;46967;48.876;2.136;2023-01-10T00:25:05;101697.38;;;4.48;88.70
61086;BME280;46967;48.876;2.136;2023-01-10T00:27:30;101701.69;;;4.48;88.64
61086;BME280;46967;48.876;2.136;2023-01-10T00:29:56;101704.22;;;4.45;89.30
61086;BME280;46967;48.876;2.136;2023-01-10T00:32:25;101713.66;;;4.46;89.08
61086;BME280;46967;48.876;2.136;2023-01-10T00:34:50;101711.06;;;4.43;89.56
61086;BME280;46967;48.876;2.136;2023-01-10T00:37:16;101715.34;;;4.45;89.58
61086;BME280;46967;48.876;2.136;2023-01-10T00:39:41;101711.13;;;4.47;89.57
61086;BME280;46967;48.876;2.136;2023-01-10T00:42:08;101728.28;;;4.53;89.48
61086;BME280;46967;48.876;2.136;2023-01-10T00:44:53;101720.53;;;4.48;90.01
61086;BME280;46967;48.876;2.136;2023-01-10T00:47:18;101715.44;;;4.53;89.50
61086;BME280;46967;48.876;2.136;2023-01-10T00:49:43;101713.78;;;4.60;89.38
61086;BME280;46967;48.876;2.136;2023-01-10T00:52:09;101722.31;;;4.54;89.68
61086;BME280;46967;48.876;2.136;2023-01-10T00:54:34;101731.81;;;4.64;89.25
61086;BME280;46967;48.876;2.136;2023-01-10T00:56:59;101737.78;;;4.59;89.35
61086;BME280;46967;48.876;2.136;2023-01-10T00:59:25;101739.44;;;4.55;89.92
61086;BME280;46967;48.876;2.136;2023-01-10T01:01:50;101736.91;;;4.58;89.72
61086;BME280;46967;48.876;2.136;2023-01-10T01:04:16;101732.66;;;4.59;89.62
61086;BME280;46967;48.876;2.136;2023-01-10T01:06:43;101742.06;;;4.60;89.42
61086;BME280;46967;48.876;2.136;2023-01-10T01:09:08;101735.19;;;4.57;89.68
61086;BME280;46967;48.876;2.136;2023-01-10T01:11:34;101741.22;;;4.59;89.75
61086;BME280;46967;48.876;2.136;2023-01-10T01:13:59;101744.72;;;4.69;89.16
61086;BME280;46967;48.876;2.136;2023-01-10T01:16:25;101754.91;;;4.58;89.77
61086;BME280;46967;48.876;2.136;2023-01-10T01:18:50;101762.66;;;4.61;89.42
61086;BME280;46967;48.876;2.136;2023-01-10T01:21:15;101757.53;;;4.63;89.53
61086;BME280;46967;48.876;2.136;2023-01-10T01:23:41;101756.72;;;4.67;89.68
61086;BME280;46967;48.876;2.136;2023-01-10T01:26:06;101766.16;;;4.66;89.43
61086;BME280;46967;48.876;2.136;2023-01-10T01:28:32;101778.00;;;4.50;90.35
61086;BME280;46967;48.876;2.136;2023-01-10T01:30:57;101778.03;;;4.58;89.76
61086;BME280;46967;48.876;2.136;2023-01-10T01:33:23;101784.84;;;4.53;90.06
61086;BME280;46967;48.876;2.136;2023-01-10T01:35:48;101788.28;;;4.55;90.25
61086;BME280;46967;48.876;2.136;2023-01-10T01:38:16;101789.97;;;4.51;90.36
61086;BME280;46967;48.876;2.136;2023-01-10T01:40:42;101792.78;;;4.71;89.45
61086;BME280;46967;48.876;2.136;2023-01-10T01:43:28;101790.97;;;4.66;89.72
61086;BME280;46967;48.876;2.136;2023-01-10T01:45:58;101780.72;;;4.69;89.39
61086;BME280;46967;48.876;2.136;2023-01-10T01:51:09;101777.22;;;4.61;89.43
61086;BME280;46967;48.876;2.136;2023-01-10T01:56:07;101800.41;;;4.64;89.70
61086;BME280;46967;48.876;2.136;2023-01-10T01:58:50;101803.84;;;4.66;89.30
61086;BME280;46967;48.876;2.136;2023-01-10T02:01:17;101815.03;;;4.69;89.28
61086;BME280;46967;48.876;2.136;2023-01-10T02:03:46;101801.28;;;4.67;89.29
61086;BME280;46967;48.876;2.136;2023-01-10T02:06:13;101808.94;;;4.61;89.54
61086;BME280;46967;48.876;2.136;2023-01-10T02:08:44;101812.47;;;4.71;89.40
61086;BME280;46967;48.876;2.136;2023-01-10T02:11:13;101809.03;;;4.70;89.02
61086;BME280;46967;48.876;2.136;2023-01-10T02:13:40;101815.00;;;4.66;89.36
61086;BME280;46967;48.876;2.136;2023-01-10T02:16:07;101818.41;;;4.65;89.51
61086;BME280;46967;48.876;2.136;2023-01-10T02:18:34;101827.78;;;4.59;89.68
61086;BME280;46967;48.876;2.136;2023-01-10T02:27:08;101816.59;;;4.57;90.12
61086;BME280;46967;48.876;2.136;2023-01-10T02:30:04;101808.09;;;4.61;89.87
61086;BME280;46967;48.876;2.136;2023-01-10T02:43:22;101814.91;;;4.59;90.35
61086;BME280;46967;48.876;2.136;2023-01-10T02:46:18;101820.91;;;4.59;90.55
61086;BME280;46967;48.876;2.136;2023-01-10T02:48:42;101824.41;;;4.64;90.26
61086;BME280;46967;48.876;2.136;2023-01-10T02:51:26;101838.09;;;4.60;90.45
61086;BME280;46967;48.876;2.136;2023-01-10T02:54:06;101851.03;;;4.71;90.11
61086;BME280;46967;48.876;2.136;2023-01-10T02:56:51;101859.59;;;4.68;90.20
61086;BME280;46967;48.876;2.136;2023-01-10T03:02:56;101844.03;;;4.58;90.67
61086;BME280;46967;48.876;2.136;2023-01-10T03:08:01;101840.59;;;4.56;90.35
61086;BME280;46967;48.876;2.136;2023-01-10T03:10:36;101838.00;;;4.54;91.01
61086;BME280;46967;48.876;2.136;2023-01-10T03:13:14;101839.72;;;4.57;90.66
61086;BME280;46967;48.876;2.136;2023-01-10T03:15:41;101837.19;;;4.60;90.58
61086;BME280;46967;48.876;2.136;2023-01-10T03:18:14;101838.06;;;4.59;90.69
61086;BME280;46967;48.876;2.136;2023-01-10T03:20:43;101840.59;;;4.56;90.77
61086;BME280;46967;48.876;2.136;2023-01-10T03:23:11;101840.59;;;4.56;91.03
61086;BME280;46967;48.876;2.136;2023-01-10T03:25:39;101845.69;;;4.51;91.28
61086;BME280;46967;48.876;2.136;2023-01-10T03:28:15;101854.22;;;4.48;91.49
61086;BME280;46967;48.876;2.136;2023-01-10T03:30:51;101854.38;;;4.62;90.79
61086;BME280;46967;48.876;2.136;2023-01-10T03:33:23;101850.16;;;4.67;90.42
61086;BME280;46967;48.876;2.136;2023-01-10T03:38:50;101851.78;;;4.59;91.16
61086;BME280;46967;48.876;2.136;2023-01-10T03:41:36;101856.13;;;4.65;91.20
61086;BME280;46967;48.876;2.136;2023-01-10T03:44:30;101863.03;;;4.69;91.13
61086;BME280;46967;48.876;2.136;2023-01-10T03:49:47;101866.56;;;4.79;90.91
61086;BME280;46967;48.876;2.136;2023-01-10T03:52:15;101861.47;;;4.83;90.54
61086;BME280;46967;48.876;2.136;2023-01-10T03:54:42;101862.34;;;4.82;90.74
61086;BME280;46967;48.876;2.136;2023-01-10T03:57:15;101852.91;;;4.84;90.59
61086;BME280;46967;48.876;2.136;2023-01-10T03:59:40;101862.34;;;4.82;90.61
61086;BME280;46967;48.876;2.136;2023-01-10T04:02:05;101871.69;;;4.77;90.96
61086;BME280;46967;48.876;2.136;2023-01-10T04:04:31;101868.22;;;4.74;90.81
61086;BME280;46967;48.876;2.136;2023-01-10T04:06:56;101860.56;;;4.80;90.70
61086;BME280;46967;48.876;2.136;2023-01-10T04:09:22;101865.78;;;4.84;90.31
61086;BME280;46967;48.876;2.136;2023-01-10T04:11:47;101877.81;;;4.87;90.34
61086;BME280;46967;48.876;2.136;2023-01-10T04:14:12;101874.31;;;4.82;90.45
61086;BME280;46967;48.876;2.136;2023-01-10T04:16:37;101874.31;;;4.83;90.86
61086;BME280;46967;48.876;2.136;2023-01-10T04:19:03;101870.91;;;4.84;90.48
61086;BME280;46967;48.876;2.136;2023-01-10T04:21:28;101879.44;;;4.80;91.08
61086;BME280;46967;48.876;2.136;2023-01-10T04:23:53;101876.97;;;4.88;90.48
61086;BME280;46967;48.876;2.136;2023-01-10T04:26:19;101864.09;;;4.88;90.49
61086;BME280;46967;48.876;2.136;2023-01-10T04:28:44;101872.72;;;4.95;90.47
61086;BME280;46967;48.876;2.136;2023-01-10T04:31:09;101872.69;;;4.92;90.48
61086;BME280;46967;48.876;2.136;2023-01-10T04:33:35;101875.31;;;4.95;90.34
61086;BME280;46967;48.876;2.136;2023-01-10T04:36:00;101882.13;;;4.89;90.69
61086;BME280;46967;48.876;2.136;2023-01-10T04:38:26;101886.44;;;4.92;90.40
61086;BME280;46967;48.876;2.136;2023-01-10T04:40:53;101880.41;;;4.90;90.44
61086;BME280;46967;48.876;2.136;2023-01-10T04:43:18;101881.31;;;4.92;90.25
61086;BME280;46967;48.876;2.136;2023-01-10T04:45:44;101876.91;;;4.83;90.74
61086;BME280;46967;48.876;2.136;2023-01-10T04:48:09;101888.09;;;4.85;90.93
61086;BME280;46967;48.876;2.136;2023-01-10T04:50:34;101881.28;;;4.90;90.46
61086;BME280;46967;48.876;2.136;2023-01-10T04:53:00;101867.50;;;4.85;90.68
61086;BME280;46967;48.876;2.136;2023-01-10T04:55:25;101871.69;;;4.79;91.49
61086;BME280;46967;48.876;2.136;2023-01-10T04:57:50;101864.97;;;4.92;90.67
61086;BME280;46967;48.876;2.136;2023-01-10T05:00:16;101864.03;;;4.83;90.99
61086;BME280;46967;48.876;2.136;2023-01-10T05:02:41;101865.88;;;4.92;90.82
61086;BME280;46967;48.876;2.136;2023-01-10T05:05:14;101860.63;;;4.83;91.31
61086;BME280;46967;48.876;2.136;2023-01-10T05:07:40;101866.72;;;4.93;90.83
61086;BME280;46967;48.876;2.136;2023-01-10T05:10:06;101868.44;;;4.94;90.97
61086;BME280;46967;48.876;2.136;2023-01-10T05:12:32;101868.41;;;4.90;91.54
61086;BME280;46967;48.876;2.136;2023-01-10T05:14:58;101870.19;;;4.98;90.79
61086;BME280;46967;48.876;2.136;2023-01-10T05:17:23;101871.09;;;5.00;90.83
61086;BME280;46967;48.876;2.136;2023-01-10T05:19:49;101862.50;;;5.01;90.90
61086;BME280;46967;48.876;2.136;2023-01-10T05:22:14;101853.13;;;5.03;90.96
61086;BME280;46967;48.876;2.136;2023-01-10T05:24:39;101854.78;;;4.99;91.09
61086;BME280;46967;48.876;2.136;2023-01-10T05:27:05;101862.53;;;5.04;90.84
61086;BME280;46967;48.876;2.136;2023-01-10T05:29:31;101855.66;;;5.00;91.23
61086;BME280;46967;48.876;2.136;2023-01-10T05:31:57;101859.94;;;5.01;91.29
61086;BME280;46967;48.876;2.136;2023-01-10T05:34:22;101854.88;;;5.08;90.86
61086;BME280;46967;48.876;2.136;2023-01-10T05:36:48;101849.72;;;5.08;90.79
61086;BME280;46967;48.876;2.136;2023-01-10T05:39:13;101866.03;;;5.11;90.93
61086;BME280;46967;48.876;2.136;2023-01-10T05:41:38;101859.19;;;5.10;90.79
61086;BME280;46967;48.876;2.136;2023-01-10T05:44:05;101866.06;;;5.14;90.66
61086;BME280;46967;48.876;2.136;2023-01-10T05:46:30;101864.34;;;5.11;90.88
61086;BME280;46967;48.876;2.136;2023-01-10T05:48:55;101864.38;;;5.16;90.63
61086;BME280;46967;48.876;2.136;2023-01-10T05:51:21;101868.66;;;5.15;90.51
61086;BME280;46967;48.876;2.136;2023-01-10T05:53:46;101860.03;;;5.12;90.76
61086;BME280;46967;48.876;2.136;2023-01-10T05:56:11;101860.03;;;5.12;90.76
61086;BME280;46967;48.876;2.136;2023-01-10T05:58:37;101859.19;;;5.11;90.94
61086;BME280;46967;48.876;2.136;2023-01-10T06:01:02;101858.38;;;5.18;90.36
61086;BME280;46967;48.876;2.136;2023-01-10T06:03:27;101854.91;;;5.13;90.50
61086;BME280;46967;48.876;2.136;2023-01-10T06:05:54;101860.03;;;5.10;90.84
61086;BME280;46967;48.876;2.136;2023-01-10T06:08:19;101848.94;;;5.16;90.49
61086;BME280;46967;48.876;2.136;2023-01-10T06:10:45;101853.13;;;5.04;91.37
61086;BME280;46967;48.876;2.136;2023-01-10T06:13:10;101859.09;;;5.00;91.38
61086;BME280;46967;48.876;2.136;2023-01-10T06:15:36;101859.97;;;5.04;91.24
61086;BME280;46967;48.876;2.136;2023-01-10T06:18:02;101859.94;;;5.02;91.06
61086;BME280;46967;48.876;2.136;2023-01-10T06:20:27;101853.16;;;5.09;90.99
61086;BME280;46967;48.876;2.136;2023-01-10T06:22:53;101856.50;;;5.00;91.48
61086;BME280;46967;48.876;2.136;2023-01-10T06:25:18;101856.53;;;5.03;91.09
61086;BME280;46967;48.876;2.136;2023-01-10T06:27:43;101865.06;;;5.01;91.53
61086;BME280;46967;48.876;2.136;2023-01-10T06:30:11;101871.09;;;5.00;91.50
61086;BME280;46967;48.876;2.136;2023-01-10T06:32:37;101865.03;;;4.96;91.64
61086;BME280;46967;48.876;2.136;2023-01-10T06:35:03;101868.44;;;4.94;92.00
61086;BME280;46967;48.876;2.136;2023-01-10T06:37:28;101857.25;;;4.88;92.20
61086;BME280;46967;48.876;2.136;2023-01-10T06:39:54;101859.81;;;4.90;91.83
61086;BME280;46967;48.876;2.136;2023-01-10T06:42:19;101860.72;;;4.92;92.07
61086;BME280;46967;48.876;2.136;2023-01-10T06:44:44;101853.91;;;4.99;92.07
61086;BME280;46967;48.876;2.136;2023-01-10T06:47:10;101859.13;;;5.05;91.60
61086;BME280;46967;48.876;2.136;2023-01-10T06:49:35;101863.31;;;4.94;91.90
61086;BME280;46967;48.876;2.136;2023-01-10T06:52:01;101859.00;;;4.94;91.87
61086;BME280;46967;48.876;2.136;2023-01-10T06:54:26;101859.88;;;4.95;91.78
61086;BME280;46967;48.876;2.136;2023-01-10T06:56:51;101865.91;;;4.97;91.93
61086;BME280;46967;48.876;2.136;2023-01-10T06:59:16;101862.41;;;4.88;92.15
61086;BME280;46967;48.876;2.136;2023-01-10T07:01:42;101859.91;;;4.98;92.23
61086;BME280;46967;48.876;2.136;2023-01-10T07:04:07;101868.44;;;4.92;92.53
61086;BME280;46967;48.876;2.136;2023-01-10T07:06:39;101868.53;;;5.00;92.39
61086;BME280;46967;48.876;2.136;2023-01-10T07:09:06;101877.13;;;5.03;91.98
61086;BME280;46967;48.876;2.136;2023-01-10T07:11:32;101875.34;;;4.99;92.11
61086;BME280;46967;48.876;2.136;2023-01-10T07:13:59;101876.25;;;5.01;91.80
61086;BME280;46967;48.876;2.136;2023-01-10T07:16:25;101868.53;;;5.00;92.11
61086;BME280;46967;48.876;2.136;2023-01-10T07:18:50;101870.09;;;4.90;92.99
61086;BME280;46967;48.876;2.136;2023-01-10T07:21:16;101866.72;;;4.93;92.79
61086;BME280;46967;48.876;2.136;2023-01-10T07:23:43;101859.13;;;5.03;92.11
61086;BME280;46967;48.876;2.136;2023-01-10T07:26:10;101868.41;;;4.90;93.03
61086;BME280;46967;48.876;2.136;2023-01-10T07:28:36;101863.38;;;5.01;92.83
61086;BME280;46967;48.876;2.136;2023-01-10T07:31:04;101880.56;;;5.04;92.73
61086;BME280;46967;48.876;2.136;2023-01-10T07:33:30;101858.28;;;5.04;93.08
61086;BME280;46967;48.876;2.136;2023-01-10T07:35:56;101847.09;;;5.02;92.97
61086;BME280;46967;48.876;2.136;2023-01-10T07:38:21;101859.16;;;5.06;93.00
61086;BME280;46967;48.876;2.136;2023-01-10T07:40:47;101856.66;;;5.14;92.58
61086;BME280;46967;48.876;2.136;2023-01-10T07:43:12;101866.91;;;5.11;92.59
61086;BME280;46967;48.876;2.136;2023-01-10T07:45:37;101858.34;;;5.15;92.68
61086;BME280;46967;48.876;2.136;2023-01-10T07:48:03;101870.38;;;5.15;92.80
61086;BME280;46967;48.876;2.136;2023-01-10T07:50:32;101863.56;;;5.23;92.44
61086;BME280;46967;48.876;2.136;2023-01-10T07:52:59;101863.47;;;5.12;93.36
61086;BME280;46967;48.876;2.136;2023-01-10T07:55:25;101866.13;;;5.20;93.01
61086;BME280;46967;48.876;2.136;2023-01-10T07:57:51;101853.25;;;5.20;92.78
61086;BME280;46967;48.876;2.136;2023-01-10T08:00:17;101856.75;;;5.23;92.44
61086;BME280;46967;48.876;2.136;2023-01-10T08:02:43;101851.56;;;5.22;92.93
61086;BME280;46967;48.876;2.136;2023-01-10T08:05:08;101868.84;;;5.35;92.01
61086;BME280;46967;48.876;2.136;2023-01-10T08:07:34;101862.81;;;5.30;92.30
61086;BME280;46967;48.876;2.136;2023-01-10T08:10:00;101855.09;;;5.33;92.33
61086;BME280;46967;48.876;2.136;2023-01-10T08:12:25;101856.84;;;5.37;92.24
61086;BME280;46967;48.876;2.136;2023-01-10T08:14:51;101856.84;;;5.39;92.27
61086;BME280;46967;48.876;2.136;2023-01-10T08:17:16;101868.84;;;5.37;92.48
61086;BME280;46967;48.876;2.136;2023-01-10T08:19:42;101864.59;;;5.40;92.38
61086;BME280;46967;48.876;2.136;2023-01-10T08:22:07;101861.16;;;5.40;92.87
61086;BME280;46967;48.876;2.136;2023-01-10T08:24:33;101856.91;;;5.45;92.77
61086;BME280;46967;48.876;2.136;2023-01-10T08:26:59;101850.91;;;5.44;93.08
61086;BME280;46967;48.876;2.136;2023-01-10T08:29:25;101862.13;;;5.54;92.62
61086;BME280;46967;48.876;2.136;2023-01-10T08:31:50;101849.31;;;5.60;92.79
61086;BME280;46967;48.876;2.136;2023-01-10T08:34:15;101844.94;;;5.53;93.22
61086;BME280;46967;48.876;2.136;2023-01-10T08:36:41;101843.34;;;5.63;92.96
61086;BME280;46967;48.876;2.136;2023-01-10T08:39:07;101845.03;;;5.66;93.25
61086;BME280;46967;48.876;2.136;2023-01-10T08:41:32;101855.38;;;5.69;93.19
61086;BME280;46967;48.876;2.136;2023-01-10T08:43:57;101851.97;;;5.71;93.37
61086;BME280;46967;48.876;2.136;2023-01-10T08:46:23;101858.84;;;5.74;93.83
61086;BME280;46967;48.876;2.136;2023-01-10T08:48:48;101854.63;;;5.88;92.99
61086;BME280;46967;48.876;2.136;2023-01-10T08:51:15;101852.91;;;5.84;93.32
61086;BME280;46967;48.876;2.136;2023-01-10T08:53:40;101848.59;;;5.83;93.39
61086;BME280;46967;48.876;2.136;2023-01-10T08:56:06;101853.72;;;5.77;93.52
61086;BME280;46967;48.876;2.136;2023-01-10T08:58:32;101851.97;;;5.73;94.29
61086;BME280;46967;48.876;2.136;2023-01-10T09:00:58;101847.72;;;5.78;94.50
61086;BME280;46967;48.876;2.136;2023-01-10T09:03:23;101838.28;;;5.80;94.69
61086;BME280;46967;48.876;2.136;2023-01-10T09:05:48;101850.34;;;5.87;94.27
61086;BME280;46967;48.876;2.136;2023-01-10T09:08:14;101852.88;;;5.79;94.55
61086;BME280;46967;48.876;2.136;2023-01-10T09:10:39;101861.50;;;5.86;94.60
61086;BME280;46967;48.876;2.136;2023-01-10T09:13:06;101854.59;;;5.77;95.09
61086;BME280;46967;48.876;2.136;2023-01-10T09:15:33;101851.16;;;5.78;95.62
61086;BME280;46967;48.876;2.136;2023-01-10T09:18:01;101851.13;;;5.77;95.97
61086;BME280;46967;48.876;2.136;2023-01-10T09:20:28;101858.09;;;5.87;95.60
61086;BME280;46967;48.876;2.136;2023-01-10T09:22:54;101843.44;;;5.80;96.12
61086;BME280;46967;48.876;2.136;2023-01-10T09:25:21;101834.88;;;5.84;96.66
61086;BME280;46967;48.876;2.136;2023-01-10T09:27:47;101841.75;;;5.88;97.00
61086;BME280;46967;48.876;2.136;2023-01-10T09:30:19;101835.75;;;5.89;97.36
61086;BME280;46967;48.876;2.136;2023-01-10T09:32:49;101834.88;;;5.84;97.96
61086;BME280;46967;48.876;2.136;2023-01-10T09:35:14;101836.59;;;5.87;98.08
61086;BME280;46967;48.876;2.136;2023-01-10T09:37:39;101836.59;;;5.85;98.13
61086;BME280;46967;48.876;2.136;2023-01-10T09:40:05;101834.03;;;5.90;97.98
61086;BME280;46967;48.876;2.136;2023-01-10T09:42:44;101821.16;;;5.90;98.37
61086;BME280;46967;48.876;2.136;2023-01-10T09:45:30;101822.03;;;5.92;98.58
61086;BME280;46967;48.876;2.136;2023-01-10T09:48:04;101828.88;;;5.91;99.43
61086;BME280;46967;48.876;2.136;2023-01-10T09:53:21;101827.25;;;5.96;99.33
61086;BME280;46967;48.876;2.136;2023-01-10T09:55:53;101819.56;;;6.07;98.92
61086;BME280;46967;48.876;2.136;2023-01-10T09:58:19;101823.88;;;6.07;99.43
61086;BME280;46967;48.876;2.136;2023-01-10T10:00:57;101823.03;;;6.09;98.79
61086;BME280;46967;48.876;2.136;2023-01-10T10:06:01;101822.13;;;6.04;99.04
61086;BME280;46967;48.876;2.136;2023-01-10T10:08:27;101823.00;;;6.03;99.51
61086;BME280;46967;48.876;2.136;2023-01-10T10:11:47;101824.72;;;6.06;100.00
61086;BME280;46967;48.876;2.136;2023-01-10T10:16:42;101810.88;;;5.96;100.00
61086;BME280;46967;48.876;2.136;2023-01-10T10:19:49;101807.56;;;6.08;100.00
61086;BME280;46967;48.876;2.136;2023-01-10T10:31:15;101766.34;;;6.14;100.00
61086;BME280;46967;48.876;2.136;2023-01-10T10:34:36;101762.06;;;6.19;100.00
61086;BME280;46967;48.876;2.136;2023-01-10T10:36:49;101760.34;;;6.20;100.00
61086;BME280;46967;48.876;2.136;2023-01-10T10:39:18;101745.75;;;6.31;100.00
61086;BME280;46967;48.876;2.136;2023-01-10T10:41:47;101741.47;;;6.41;100.00
61086;BME280;46967;48.876;2.136;2023-01-10T10:46:49;101751.81;;;6.48;99.75
61086;BME280;46967;48.876;2.136;2023-01-10T10:51:52;101726.91;;;6.53;99.54
61086;BME280;46967;48.876;2.136;2023-01-10T10:54:18;101720.03;;;6.52;99.76
61086;BME280;46967;48.876;2.136;2023-01-10T10:56:44;101720.03;;;6.57;100.00
61086;BME280;46967;48.876;2.136;2023-01-10T10:59:15;101720.06;;;6.63;99.82
61086;BME280;46967;48.876;2.136;2023-01-10T11:01:41;101719.16;;;6.60;99.62
61086;BME280;46967;48.876;2.136;2023-01-10T11:04:13;101714.03;;;6.57;99.33
61086;BME280;46967;48.876;2.136;2023-01-10T11:06:40;101713.16;;;6.58;99.12
61086;BME280;46967;48.876;2.136;2023-01-10T11:09:14;101708.84;;;6.47;100.00
61086;BME280;46967;48.876;2.136;2023-01-10T11:11:45;101703.69;;;6.43;100.00
61086;BME280;46967;48.876;2.136;2023-01-10T11:14:11;101695.09;;;6.53;99.97
61086;BME280;46967;48.876;2.136;2023-01-10T11:16:39;101694.25;;;6.54;100.00
61086;BME280;46967;48.876;2.136;2023-01-10T11:19:15;101697.66;;;6.50;100.00
61086;BME280;46967;48.876;2.136;2023-01-10T11:21:54;101685.66;;;6.55;99.98
61086;BME280;46967;48.876;2.136;2023-01-10T11:24:26;101670.16;;;6.60;100.00
61086;BME280;46967;48.876;2.136;2023-01-10T11:26:52;101670.16;;;6.64;100.00
61086;BME280;46967;48.876;2.136;2023-01-10T11:29:27;101661.56;;;6.67;100.00
61086;BME280;46967;48.876;2.136;2023-01-10T11:31:56;101652.09;;;6.61;100.00
61086;BME280;46967;48.876;2.136;2023-01-10T11:34:25;101647.81;;;6.74;100.00
61086;BME280;46967;48.876;2.136;2023-01-10T11:36:54;101645.25;;;6.74;100.00
61086;BME280;46967;48.876;2.136;2023-01-10T11:39:20;101642.66;;;6.76;100.00
61086;BME280;46967;48.876;2.136;2023-01-10T11:41:46;101636.63;;;6.78;100.00
61086;BME280;46967;48.876;2.136;2023-01-10T11:44:26;101635.78;;;6.84;100.00
61086;BME280;46967;48.876;2.136;2023-01-10T11:46:57;101622.00;;;6.89;99.58
61086;BME280;46967;48.876;2.136;2023-01-10T11:51:55;101602.22;;;6.95;100.00
61086;BME280;46967;48.876;2.136;2023-01-10T11:54:24;101603.06;;;7.00;99.85
61086;BME280;46967;48.876;2.136;2023-01-10T12:00:02;101599.59;;;6.96;100.00
61086;BME280;46967;48.876;2.136;2023-01-10T12:02:39;101589.28;;;7.01;99.86
61086;BME280;46967;48.876;2.136;2023-01-10T12:05:08;101593.59;;;6.99;100.00
61086;BME280;46967;48.876;2.136;2023-01-10T12:07:56;101586.69;;;7.01;100.00
61086;BME280;46967;48.876;2.136;2023-01-10T12:10:24;101591.84;;;7.05;100.00
61086;BME280;46967;48.876;2.136;2023-01-10T12:12:55;101570.31;;;7.17;100.00
61086;BME280;46967;48.876;2.136;2023-01-10T12:15:23;101565.13;;;7.22;99.82
61086;BME280;46967;48.876;2.136;2023-01-10T12:17:50;101553.06;;;7.24;99.96
61086;BME280;46967;48.876;2.136;2023-01-10T12:20:16;101541.03;;;7.17;100.00
61086;BME280;46967;48.876;2.136;2023-01-10T12:22:46;101544.50;;;7.16;100.00
61086;BME280;46967;48.876;2.136;2023-01-10T12:25:19;101540.16;;;7.22;100.00
61086;BME280;46967;48.876;2.136;2023-01-10T12:27:46;101547.06;;;7.22;100.00
61086;BME280;46967;48.876;2.136;2023-01-10T12:30:33;101541.88;;;7.25;100.00
61086;BME280;46967;48.876;2.136;2023-01-10T12:33:03;101528.09;;;7.23;100.00
61086;BME280;46967;48.876;2.136;2023-01-10T12:35:35;101526.38;;;7.33;100.00
61086;BME280;46967;48.876;2.136;2023-01-10T12:40:47;101532.38;;;7.35;100.00
61086;BME280;46967;48.876;2.136;2023-01-10T12:43:35;101536.66;;;7.37;100.00
61086;BME280;46967;48.876;2.136;2023-01-10T12:46:23;101522.00;;;7.41;100.00
61086;BME280;46967;48.876;2.136;2023-01-10T12:49:00;101514.25;;;7.44;100.00
61086;BME280;46967;48.876;2.136;2023-01-10T12:51:28;101518.53;;;7.45;100.00
61086;BME280;46967;48.876;2.136;2023-01-10T12:53:58;101515.13;;;7.40;100.00
61086;BME280;46967;48.876;2.136;2023-01-10T12:56:28;101498.72;;;7.50;100.00
61086;BME280;46967;48.876;2.136;2023-01-10T12:58:57;101505.56;;;7.53;100.00
61086;BME280;46967;48.876;2.136;2023-01-10T13:01:30;101497.81;;;7.54;100.00
61086;BME280;46967;48.876;2.136;2023-01-10T13:04:03;101484.03;;;7.60;100.00
61086;BME280;46967;48.876;2.136;2023-01-10T13:06:32;101471.06;;;7.66;100.00
61086;BME280;46967;48.876;2.136;2023-01-10T13:09:04;101472.75;;;7.69;100.00
61086;BME280;46967;48.876;2.136;2023-01-10T13:11:36;101469.28;;;7.71;100.00
61086;BME280;46967;48.876;2.136;2023-01-10T13:14:04;101473.56;;;7.75;100.00
61086;BME280;46967;48.876;2.136;2023-01-10T13:16:54;101467.53;;;7.76;100.00
61086;BME280;46967;48.876;2.136;2023-01-10T13:19:25;101448.59;;;7.76;100.00
61086;BME280;46967;48.876;2.136;2023-01-10T13:22:18;101472.66;;;7.81;100.00
61086;BME280;46967;48.876;2.136;2023-01-10T13:24:58;101450.22;;;7.85;100.00
61086;BME280;46967;48.876;2.136;2023-01-10T13:27:30;101445.13;;;7.77;100.00
61086;BME280;46967;48.876;2.136;2023-01-10T13:29:56;101455.44;;;7.80;100.00
61086;BME280;46967;48.876;2.136;2023-01-10T13:32:34;101439.13;;;7.75;100.00
61086;BME280;46967;48.876;2.136;2023-01-10T13:35:17;101452.78;;;7.89;100.00
61086;BME280;46967;48.876;2.136;2023-01-10T13:37:49;101445.97;;;7.82;100.00
61086;BME280;46967;48.876;2.136;2023-01-10T13:40:24;101445.03;;;7.89;100.00
61086;BME280;46967;48.876;2.136;2023-01-10T13:43:24;101444.13;;;7.95;100.00
61086;BME280;46967;48.876;2.136;2023-01-10T13:48:41;101435.44;;;8.01;100.00
61086;BME280;46967;48.876;2.136;2023-01-10T13:51:29;101444.91;;;8.03;100.00
61086;BME280;46967;48.876;2.136;2023-01-10T13:56:42;101435.41;;;8.04;100.00
61086;BME280;46967;48.876;2.136;2023-01-10T14:02:14;101428.56;;;8.03;100.00
61086;BME280;46967;48.876;2.136;2023-01-10T14:05:04;101435.38;;;8.08;100.00
61086;BME280;46967;48.876;2.136;2023-01-10T14:07:49;101432.78;;;8.11;100.00
61086;BME280;46967;48.876;2.136;2023-01-10T14:10:21;101420.69;;;8.12;100.00
61086;BME280;46967;48.876;2.136;2023-01-10T14:13:00;101424.97;;;8.14;100.00
61086;BME280;46967;48.876;2.136;2023-01-10T14:15:44;101412.88;;;8.18;100.00
61086;BME280;46967;48.876;2.136;2023-01-10T14:18:34;101416.28;;;8.25;100.00
61086;BME280;46967;48.876;2.136;2023-01-10T14:21:05;101425.72;;;8.26;100.00